St Solene — FVDG — position and weather

sailwx.info

Track history (hours):
 
Tides and Currents Weather Stations Pressure Air Temp Water Temp Dewpoint Dewpoint Depression Visibility Wind Speed Wind Dir Waves Ship Positions

St Solene

Last reported at 2014-Aug-19 08:28 UTC. Time now 2014-Aug-20 16:33 UTC.
Position N 43°10' E 009°16'.

Length 104 m; draft 6.5 m.

Type: Tanker. MMSI: 226302000.

Date/timePositionNaut miles runAvg speedWind from/ knotsBaromVisibWave heightAir tempDewpointWater temp
2014-Aug-19 08:28N 43°10' E 009°16'9812.4
2014-Aug-19 00:33N 42°56' E 007°03'1211.9
2014-Aug-18 23:33N 42°54' E 006°47'1111.5
2014-Aug-18 22:33N 42°53' E 006°31'1111.3
2014-Aug-18 21:33N 42°51' E 006°16'1111.4
2014-Aug-18 20:33N 42°50' E 006°01'1211.6
2014-Aug-18 19:33N 42°50' E 005°45'1211.9
2014-Aug-18 18:33N 42°56' E 005°32'2411.8
2014-Aug-18 16:33N 43°10' E 005°05'1111.4
2014-Aug-18 15:33N 43°20' E 004°58'4 3.7
2014-Aug-18 14:33N 43°24' E 004°60'0 0.0
2014-Aug-18 13:33N 43°24' E 004°60'0 0.0
2014-Aug-18 12:33N 43°24' E 004°60'0 0.0
2014-Aug-18 11:33N 43°24' E 004°60'0 0.0
2014-Aug-18 10:33N 43°24' E 004°60'0 0.0
2014-Aug-18 09:33N 43°24' E 004°60'0 0.0
2014-Aug-18 08:27N 43°24' E 004°60'0 0.0
2014-Aug-18 07:33N 43°24' E 004°60'0 0.0
2014-Aug-18 06:33N 43°24' E 004°60'0 0.0
2014-Aug-18 05:33N 43°24' E 004°60'0 0.0
2014-Aug-18 04:33N 43°24' E 004°60'0 0.0
2014-Aug-18 03:33N 43°24' E 004°60'0 0.0
2014-Aug-18 02:33N 43°24' E 004°60'0 0.0
2014-Aug-18 01:33N 43°24' E 004°60'0 0.0
2014-Aug-18 00:33N 43°24' E 004°60'3 0.5
2014-Aug-17 18:33N 43°25' E 004°56'0 0.0
2014-Aug-17 17:29N 43°25' E 004°56'0 0.0
2014-Aug-17 16:32N 43°25' E 004°56'0 0.0
2014-Aug-17 15:32N 43°25' E 004°56'0 0.0
2014-Aug-17 14:32N 43°25' E 004°56'0 0.0
2014-Aug-17 13:32N 43°25' E 004°56'0 0.0
2014-Aug-17 12:32N 43°25' E 004°56'0 0.0
2014-Aug-17 11:32N 43°25' E 004°56'0 0.0
2014-Aug-17 10:32N 43°25' E 004°56'0 0.0
2014-Aug-17 09:32N 43°25' E 004°56'0 0.0
2014-Aug-17 08:32N 43°25' E 004°56'0 0.0
2014-Aug-17 07:29N 43°25' E 004°56'0 0.0
2014-Aug-17 06:32N 43°25' E 004°56'0 0.0
2014-Aug-17 05:32N 43°25' E 004°56'0 0.0
2014-Aug-17 04:29N 43°25' E 004°56'0 0.0
2014-Aug-17 03:32N 43°25' E 004°56'0 0.0
2014-Aug-17 02:32N 43°25' E 004°56'0 0.0
2014-Aug-17 01:29N 43°25' E 004°56'0 0.0
2014-Aug-17 00:32N 43°25' E 004°56'0 0.0
2014-Aug-16 23:29N 43°25' E 004°56'0 0.0
2014-Aug-16 22:32N 43°25' E 004°56'2 2.2
2014-Aug-16 21:33N 43°25' E 004°53'1 0.6
2014-Aug-16 20:24N 43°26' E 004°54'0 0.0
2014-Aug-16 19:30N 43°26' E 004°54'0 0.0
2014-Aug-16 18:33N 43°26' E 004°54'0 0.0
2014-Aug-16 17:18N 43°26' E 004°54'0 0.0
2014-Aug-16 16:24N 43°26' E 004°54'0 0.0
2014-Aug-16 15:33N 43°26' E 004°54'0 0.0
2014-Aug-16 14:24N 43°26' E 004°54'0 0.0
2014-Aug-16 13:30N 43°26' E 004°54'0 0.0
2014-Aug-16 12:18N 43°26' E 004°54'0 0.0
2014-Aug-16 11:30N 43°26' E 004°54'0 0.0
2014-Aug-16 10:30N 43°26' E 004°54'0 0.0
2014-Aug-16 09:30N 43°26' E 004°54'2 1.6
2014-Aug-16 08:33N 43°24' E 004°54'1 1.2
2014-Aug-16 07:31N 43°25' E 004°56'0 0.0
2014-Aug-16 06:31N 43°25' E 004°56'0 0.0
2014-Aug-16 05:28N 43°25' E 004°56'0 0.0
2014-Aug-16 04:31N 43°25' E 004°56'0 0.0
2014-Aug-16 03:31N 43°25' E 004°56'0 0.0
2014-Aug-16 02:31N 43°25' E 004°56'0 0.0
2014-Aug-16 01:31N 43°25' E 004°56'0 0.0
2014-Aug-16 00:28N 43°25' E 004°56'0 0.0
2014-Aug-15 23:29N 43°25' E 004°56'0 0.0
2014-Aug-15 22:31N 43°25' E 004°56'0 0.0
2014-Aug-15 21:28N 43°25' E 004°56'0 0.0
2014-Aug-15 20:31N 43°25' E 004°56'0 0.0
2014-Aug-15 19:31N 43°25' E 004°56'0 0.0
2014-Aug-15 18:31N 43°25' E 004°56'0 0.0
2014-Aug-15 17:31N 43°25' E 004°56'0 0.0
2014-Aug-15 16:31N 43°25' E 004°56'0 0.0
2014-Aug-15 15:31N 43°25' E 004°56'0 0.0
2014-Aug-15 14:31N 43°25' E 004°55'0 0.0
2014-Aug-15 13:31N 43°25' E 004°56'0 0.0
2014-Aug-15 12:31N 43°25' E 004°56'0 0.0
2014-Aug-15 11:31N 43°25' E 004°56'0 0.0
2014-Aug-15 10:31N 43°25' E 004°56'0 0.0
2014-Aug-15 09:28N 43°25' E 004°56'0 0.0
2014-Aug-15 08:31N 43°25' E 004°56'0 0.4
2014-Aug-15 07:33N 43°25' E 004°56'1010.1
2014-Aug-15 06:34N 43°15' E 005°01'10 9.0
2014-Aug-15 05:26N 43°10' E 005°13'1111.4
2014-Aug-15 04:27N 43°05' E 005°27'1011.2
2014-Aug-15 03:33N 43°02' E 005°40'1211.6
2014-Aug-15 02:33N 42°60' E 005°56'1111.4
2014-Aug-15 01:33N 42°56' E 006°11'1211.8
2014-Aug-15 00:34N 42°56' E 006°27'1211.9
2014-Aug-14 23:33N 42°57' E 006°43'1111.0
2014-Aug-14 22:32N 42°51' E 006°56'1010.3
2014-Aug-14 21:33N 42°45' E 007°07'33 0.7
2014-Aug-12 22:24N 42°13' E 007°17'1112.7
2014-Aug-12 21:33N 42°18' E 007°04'1312.6
2014-Aug-12 20:33N 42°24' E 006°49'1312.6
2014-Aug-12 19:33N 42°30' E 006°34'1312.7
2014-Aug-12 18:33N 42°36' E 006°19'1212.3
2014-Aug-12 17:33N 42°42' E 006°04'1211.9
2014-Aug-12 16:33N 42°47' E 005°50'1211.9
2014-Aug-12 15:33N 42°53' E 005°36'1211.5
2014-Aug-12 14:33N 42°59' E 005°22'1212.0
2014-Aug-12 13:33N 43°04' E 005°07'1212.2
2014-Aug-12 12:33N 43°15' E 005°00'1110.6
2014-Aug-12 11:33N 43°25' E 004°53'1 1.0
2014-Aug-12 10:33N 43°26' E 004°54'0 0.0
2014-Aug-12 09:27N 43°26' E 004°54'0 0.0
2014-Aug-12 08:33N 43°26' E 004°54'0 0.0
2014-Aug-12 07:33N 43°26' E 004°54'0 0.0
2014-Aug-12 06:30N 43°26' E 004°54'0 0.0
2014-Aug-12 05:33N 43°26' E 004°54'0 0.0
2014-Aug-12 04:33N 43°26' E 004°54'0 0.0
2014-Aug-12 03:24N 43°26' E 004°54'0 0.0
2014-Aug-12 02:33N 43°26' E 004°54'0 0.0
2014-Aug-12 01:33N 43°26' E 004°54'0 0.0
2014-Aug-12 00:33N 43°26' E 004°54'0 0.0
2014-Aug-11 23:30N 43°26' E 004°54'0 0.0
2014-Aug-11 22:33N 43°26' E 004°54'0 0.0
2014-Aug-11 21:33N 43°26' E 004°54'0 0.0
2014-Aug-11 20:33N 43°26' E 004°54'0 0.0
2014-Aug-11 19:33N 43°26' E 004°54'0 0.0
2014-Aug-11 18:33N 43°26' E 004°54'0 0.0
2014-Aug-11 17:33N 43°26' E 004°54'0 0.0
2014-Aug-11 16:33N 43°26' E 004°54'0 0.0
2014-Aug-11 15:27N 43°26' E 004°54'0 0.0
2014-Aug-11 12:33N 43°26' E 004°54'2 1.6
2014-Aug-11 11:33N 43°24' E 004°54'4 3.9
2014-Aug-11 10:32N 43°24' E 004°60'0 0.0
2014-Aug-11 09:32N 43°24' E 004°60'0 0.0
2014-Aug-11 08:32N 43°24' E 004°60'0 0.0
2014-Aug-11 07:32N 43°24' E 004°60'0 0.0
2014-Aug-11 06:32N 43°24' E 004°60'0 0.0
2014-Aug-11 05:32N 43°24' E 004°60'0 0.0
2014-Aug-11 04:32N 43°24' E 004°60'0 0.0
2014-Aug-11 03:32N 43°24' E 004°60'0 0.0
2014-Aug-11 02:32N 43°24' E 004°60'0 0.0
2014-Aug-11 01:32N 43°24' E 004°60'0 0.0
2014-Aug-11 00:32N 43°24' E 004°60'0 0.0
2014-Aug-10 23:32N 43°24' E 004°60'0 0.0
2014-Aug-10 22:32N 43°24' E 004°60'0 0.0
2014-Aug-10 21:32N 43°24' E 004°60'0 0.0
2014-Aug-10 20:32N 43°24' E 004°60'0 0.0
2014-Aug-10 19:33N 43°24' E 004°60'4 3.5
2014-Aug-10 18:33N 43°24' E 004°55'0 0.0
2014-Aug-10 17:33N 43°24' E 004°55'0 0.0
2014-Aug-10 16:33N 43°24' E 004°55'3 3.3
2014-Aug-10 15:33N 43°22' E 004°58'1110.5
2014-Aug-10 14:33N 43°12' E 005°03'1111.3
2014-Aug-10 13:33N 43°09' E 005°17'1110.6
2014-Aug-10 12:29N 43°05' E 005°32'1010.7
2014-Aug-10 11:33N 43°02' E 005°45'1211.9
2014-Aug-10 10:33N 42°59' E 006°01'1212.2
2014-Aug-10 09:33N 42°56' E 006°17'1312.6
2014-Aug-10 08:33N 42°57' E 006°34'1212.3
2014-Aug-10 07:33N 42°58' E 006°51'1212.4
2014-Aug-10 06:33N 42°59' E 007°08'1312.9
2014-Aug-10 05:33N 43°00' E 007°25'1313.2
2014-Aug-10 04:33N 43°01' E 007°43'1313.1
2014-Aug-10 03:33N 43°02' E 008°01'1312.8
2014-Aug-10 02:32N 43°03' E 008°19'1212.5
2014-Aug-10 01:33N 43°04' E 008°36'1412.5
2014-Aug-10 00:24N 43°05' E 008°55'1112.8
2014-Aug-09 23:33N 43°06' E 009°10'1212.4
2014-Aug-09 22:33N 43°05' E 009°27'1212.5
2014-Aug-09 21:33N 42°54' E 009°35'1513.1
2014-Aug-09 20:25N 42°39' E 009°37'  
Track history (hours):
 
Tides and Currents Weather Stations Pressure Air Temp Water Temp Dewpoint Dewpoint Depression Visibility Wind Speed Wind Dir Waves Ship Positions

St Solene

Last reported at 2014-Aug-19 08:28 UTC. Time now 2014-Aug-20 16:33 UTC.
Position N 43°10' E 009°16'.

Length 104 m; draft 6.5 m.

Type: Tanker. MMSI: 226302000.

Date/timePositionNaut miles runAvg speedWind from/ knotsBaromVisibWave heightAir tempDewpointWater temp
2014-Aug-19 08:28N 43°10' E 009°16'9812.4
2014-Aug-19 00:33N 42°56' E 007°03'1211.9
2014-Aug-18 23:33N 42°54' E 006°47'1111.5
2014-Aug-18 22:33N 42°53' E 006°31'1111.3
2014-Aug-18 21:33N 42°51' E 006°16'1111.4
2014-Aug-18 20:33N 42°50' E 006°01'1211.6
2014-Aug-18 19:33N 42°50' E 005°45'1211.9
2014-Aug-18 18:33N 42°56' E 005°32'2411.8
2014-Aug-18 16:33N 43°10' E 005°05'1111.4
2014-Aug-18 15:33N 43°20' E 004°58'4 3.7
2014-Aug-18 14:33N 43°24' E 004°60'0 0.0
2014-Aug-18 13:33N 43°24' E 004°60'0 0.0
2014-Aug-18 12:33N 43°24' E 004°60'0 0.0
2014-Aug-18 11:33N 43°24' E 004°60'0 0.0
2014-Aug-18 10:33N 43°24' E 004°60'0 0.0
2014-Aug-18 09:33N 43°24' E 004°60'0 0.0
2014-Aug-18 08:27N 43°24' E 004°60'0 0.0
2014-Aug-18 07:33N 43°24' E 004°60'0 0.0
2014-Aug-18 06:33N 43°24' E 004°60'0 0.0
2014-Aug-18 05:33N 43°24' E 004°60'0 0.0
2014-Aug-18 04:33N 43°24' E 004°60'0 0.0
2014-Aug-18 03:33N 43°24' E 004°60'0 0.0
2014-Aug-18 02:33N 43°24' E 004°60'0 0.0
2014-Aug-18 01:33N 43°24' E 004°60'0 0.0
2014-Aug-18 00:33N 43°24' E 004°60'3 0.5
2014-Aug-17 18:33N 43°25' E 004°56'0 0.0
2014-Aug-17 17:29N 43°25' E 004°56'0 0.0
2014-Aug-17 16:32N 43°25' E 004°56'0 0.0
2014-Aug-17 15:32N 43°25' E 004°56'0 0.0
2014-Aug-17 14:32N 43°25' E 004°56'0 0.0
2014-Aug-17 13:32N 43°25' E 004°56'0 0.0
2014-Aug-17 12:32N 43°25' E 004°56'0 0.0
2014-Aug-17 11:32N 43°25' E 004°56'0 0.0
2014-Aug-17 10:32N 43°25' E 004°56'0 0.0
2014-Aug-17 09:32N 43°25' E 004°56'0 0.0
2014-Aug-17 08:32N 43°25' E 004°56'0 0.0
2014-Aug-17 07:29N 43°25' E 004°56'0 0.0
2014-Aug-17 06:32N 43°25' E 004°56'0 0.0
2014-Aug-17 05:32N 43°25' E 004°56'0 0.0
2014-Aug-17 04:29N 43°25' E 004°56'0 0.0
2014-Aug-17 03:32N 43°25' E 004°56'0 0.0
2014-Aug-17 02:32N 43°25' E 004°56'0 0.0
2014-Aug-17 01:29N 43°25' E 004°56'0 0.0
2014-Aug-17 00:32N 43°25' E 004°56'0 0.0
2014-Aug-16 23:29N 43°25' E 004°56'0 0.0
2014-Aug-16 22:32N 43°25' E 004°56'2 2.2
2014-Aug-16 21:33N 43°25' E 004°53'1 0.6
2014-Aug-16 20:24N 43°26' E 004°54'0 0.0
2014-Aug-16 19:30N 43°26' E 004°54'0 0.0
2014-Aug-16 18:33N 43°26' E 004°54'0 0.0
2014-Aug-16 17:18N 43°26' E 004°54'0 0.0
2014-Aug-16 16:24N 43°26' E 004°54'0 0.0
2014-Aug-16 15:33N 43°26' E 004°54'0 0.0
2014-Aug-16 14:24N 43°26' E 004°54'0 0.0
2014-Aug-16 13:30N 43°26' E 004°54'0 0.0
2014-Aug-16 12:18N 43°26' E 004°54'0 0.0
2014-Aug-16 11:30N 43°26' E 004°54'0 0.0
2014-Aug-16 10:30N 43°26' E 004°54'0 0.0
2014-Aug-16 09:30N 43°26' E 004°54'2 1.6
2014-Aug-16 08:33N 43°24' E 004°54'1 1.2
2014-Aug-16 07:31N 43°25' E 004°56'0 0.0
2014-Aug-16 06:31N 43°25' E 004°56'0 0.0
2014-Aug-16 05:28N 43°25' E 004°56'0 0.0
2014-Aug-16 04:31N 43°25' E 004°56'0 0.0
2014-Aug-16 03:31N 43°25' E 004°56'0 0.0
2014-Aug-16 02:31N 43°25' E 004°56'0 0.0
2014-Aug-16 01:31N 43°25' E 004°56'0 0.0
2014-Aug-16 00:28N 43°25' E 004°56'0 0.0
2014-Aug-15 23:29N 43°25' E 004°56'0 0.0
2014-Aug-15 22:31N 43°25' E 004°56'0 0.0
2014-Aug-15 21:28N 43°25' E 004°56'0 0.0
2014-Aug-15 20:31N 43°25' E 004°56'0 0.0
2014-Aug-15 19:31N 43°25' E 004°56'0 0.0
2014-Aug-15 18:31N 43°25' E 004°56'0 0.0
2014-Aug-15 17:31N 43°25' E 004°56'0 0.0
2014-Aug-15 16:31N 43°25' E 004°56'0 0.0
2014-Aug-15 15:31N 43°25' E 004°56'0 0.0
2014-Aug-15 14:31N 43°25' E 004°55'0 0.0
2014-Aug-15 13:31N 43°25' E 004°56'0 0.0
2014-Aug-15 12:31N 43°25' E 004°56'0 0.0
2014-Aug-15 11:31N 43°25' E 004°56'0 0.0
2014-Aug-15 10:31N 43°25' E 004°56'0 0.0
2014-Aug-15 09:28N 43°25' E 004°56'0 0.0
2014-Aug-15 08:31N 43°25' E 004°56'0 0.4
2014-Aug-15 07:33N 43°25' E 004°56'1010.1
2014-Aug-15 06:34N 43°15' E 005°01'10 9.0
2014-Aug-15 05:26N 43°10' E 005°13'1111.4
2014-Aug-15 04:27N 43°05' E 005°27'1011.2
2014-Aug-15 03:33N 43°02' E 005°40'1211.6
2014-Aug-15 02:33N 42°60' E 005°56'1111.4
2014-Aug-15 01:33N 42°56' E 006°11'1211.8
2014-Aug-15 00:34N 42°56' E 006°27'1211.9
2014-Aug-14 23:33N 42°57' E 006°43'1111.0
2014-Aug-14 22:32N 42°51' E 006°56'1010.3
2014-Aug-14 21:33N 42°45' E 007°07'33 0.7
2014-Aug-12 22:24N 42°13' E 007°17'1112.7
2014-Aug-12 21:33N 42°18' E 007°04'1312.6
2014-Aug-12 20:33N 42°24' E 006°49'1312.6
2014-Aug-12 19:33N 42°30' E 006°34'1312.7
2014-Aug-12 18:33N 42°36' E 006°19'1212.3
2014-Aug-12 17:33N 42°42' E 006°04'1211.9
2014-Aug-12 16:33N 42°47' E 005°50'1211.9
2014-Aug-12 15:33N 42°53' E 005°36'1211.5
2014-Aug-12 14:33N 42°59' E 005°22'1212.0
2014-Aug-12 13:33N 43°04' E 005°07'1212.2
2014-Aug-12 12:33N 43°15' E 005°00'1110.6
2014-Aug-12 11:33N 43°25' E 004°53'1 1.0
2014-Aug-12 10:33N 43°26' E 004°54'0 0.0
2014-Aug-12 09:27N 43°26' E 004°54'0 0.0
2014-Aug-12 08:33N 43°26' E 004°54'0 0.0
2014-Aug-12 07:33N 43°26' E 004°54'0 0.0
2014-Aug-12 06:30N 43°26' E 004°54'0 0.0
2014-Aug-12 05:33N 43°26' E 004°54'0 0.0
2014-Aug-12 04:33N 43°26' E 004°54'0 0.0
2014-Aug-12 03:24N 43°26' E 004°54'0 0.0
2014-Aug-12 02:33N 43°26' E 004°54'0 0.0
2014-Aug-12 01:33N 43°26' E 004°54'0 0.0
2014-Aug-12 00:33N 43°26' E 004°54'0 0.0
2014-Aug-11 23:30N 43°26' E 004°54'0 0.0
2014-Aug-11 22:33N 43°26' E 004°54'0 0.0
2014-Aug-11 21:33N 43°26' E 004°54'0 0.0
2014-Aug-11 20:33N 43°26' E 004°54'0 0.0
2014-Aug-11 19:33N 43°26' E 004°54'0 0.0
2014-Aug-11 18:33N 43°26' E 004°54'0 0.0
2014-Aug-11 17:33N 43°26' E 004°54'0 0.0
2014-Aug-11 16:33N 43°26' E 004°54'0 0.0
2014-Aug-11 15:27N 43°26' E 004°54'0 0.0
2014-Aug-11 12:33N 43°26' E 004°54'2 1.6
2014-Aug-11 11:33N 43°24' E 004°54'4 3.9
2014-Aug-11 10:32N 43°24' E 004°60'0 0.0
2014-Aug-11 09:32N 43°24' E 004°60'0 0.0
2014-Aug-11 08:32N 43°24' E 004°60'0 0.0
2014-Aug-11 07:32N 43°24' E 004°60'0 0.0
2014-Aug-11 06:32N 43°24' E 004°60'0 0.0
2014-Aug-11 05:32N 43°24' E 004°60'0 0.0
2014-Aug-11 04:32N 43°24' E 004°60'0 0.0
2014-Aug-11 03:32N 43°24' E 004°60'0 0.0
2014-Aug-11 02:32N 43°24' E 004°60'0 0.0
2014-Aug-11 01:32N 43°24' E 004°60'0 0.0
2014-Aug-11 00:32N 43°24' E 004°60'0 0.0
2014-Aug-10 23:32N 43°24' E 004°60'0 0.0
2014-Aug-10 22:32N 43°24' E 004°60'0 0.0
2014-Aug-10 21:32N 43°24' E 004°60'0 0.0
2014-Aug-10 20:32N 43°24' E 004°60'0 0.0
2014-Aug-10 19:33N 43°24' E 004°60'4 3.5
2014-Aug-10 18:33N 43°24' E 004°55'0 0.0
2014-Aug-10 17:33N 43°24' E 004°55'0 0.0
2014-Aug-10 16:33N 43°24' E 004°55'3 3.3
2014-Aug-10 15:33N 43°22' E 004°58'1110.5
2014-Aug-10 14:33N 43°12' E 005°03'1111.3
2014-Aug-10 13:33N 43°09' E 005°17'1110.6
2014-Aug-10 12:29N 43°05' E 005°32'1010.7
2014-Aug-10 11:33N 43°02' E 005°45'1211.9
2014-Aug-10 10:33N 42°59' E 006°01'1212.2
2014-Aug-10 09:33N 42°56' E 006°17'1312.6
2014-Aug-10 08:33N 42°57' E 006°34'1212.3
2014-Aug-10 07:33N 42°58' E 006°51'1212.4
2014-Aug-10 06:33N 42°59' E 007°08'1312.9
2014-Aug-10 05:33N 43°00' E 007°25'1313.2
2014-Aug-10 04:33N 43°01' E 007°43'1313.1
2014-Aug-10 03:33N 43°02' E 008°01'1312.8
2014-Aug-10 02:32N 43°03' E 008°19'1212.5
2014-Aug-10 01:33N 43°04' E 008°36'1412.5
2014-Aug-10 00:24N 43°05' E 008°55'1112.8
2014-Aug-09 23:33N 43°06' E 009°10'1212.4
2014-Aug-09 22:33N 43°05' E 009°27'1212.5
2014-Aug-09 21:33N 42°54' E 009°35'1513.1
2014-Aug-09 20:25N 42°39' E 009°37'  

Dump ship's entire track history